Time;durP1;ratioP1;P1;durP2;ratioP2;P2;SDS_P1;SDS_P2;PMS_P1;PMS_P2;Temp;Humidity;BMP_temperature;BMP_pressure;BME280_temperature;BME280_humidity;BME280_pressure;Samples;Min_cycle;Max_cycle;Signal;HPM_P1;HPM_P2
2022/07/26 00:00:29;;;;;;;;;;;23.40;96.90;;;;;;5144239;28;19926;-72
2022/07/26 00:02:57;;;;;;;;;;;23.40;96.60;;;;;;5142771;27;20114;-73
2022/07/26 00:05:23;;;;;;;;;;;23.40;96.60;;;;;;5140624;27;19986;-72
2022/07/26 00:08:09;;;;;;;;;;;23.30;96.50;;;;;;5147865;27;20191;-72
2022/07/26 00:10:36;;;;;;;;;;;23.30;96.50;;;;;;5147288;27;19939;-72
2022/07/26 00:13:03;;;;;;;;;;;23.30;96.50;;;;;;5147548;27;19926;-72
2022/07/26 00:15:29;;;;;;;;;;;23.20;96.50;;;;;;5147831;27;19925;-72
2022/07/26 00:17:57;;;;;;;;;;;23.20;96.50;;;;;;5147477;27;20187;-72
2022/07/26 00:20:24;;;;;;;;;;;23.10;96.40;;;;;;5147895;27;19951;-71
2022/07/26 00:22:51;;;;;;;;;;;23.10;96.60;;;;;;5146875;27;19954;-72
2022/07/26 00:25:17;;;;;;;;;;;23.00;96.60;;;;;;5147106;27;19957;-72
2022/07/26 00:27:44;;;;;;;;;;;23.00;96.70;;;;;;5141046;27;19978;-72
2022/07/26 00:30:11;;;;;;;;;;;23.00;96.80;;;;;;5136496;27;19919;-72
2022/07/26 00:32:38;;;;;;;;;;;22.90;97.00;;;;;;5142158;27;19919;-72
2022/07/26 00:35:06;;;;;;;;;;;22.80;97.10;;;;;;5142989;27;20032;-72
2022/07/26 00:37:33;;;;;;;;;;;22.70;97.20;;;;;;5135760;27;19920;-72
2022/07/26 00:40:00;;;;;;;;;;;22.70;97.30;;;;;;5131458;27;19920;-72
2022/07/26 00:42:27;;;;;;;;;;;22.70;97.50;;;;;;5146910;27;20253;-72
2022/07/26 00:44:59;;;;;;;;;;;22.60;97.60;;;;;;5146661;27;19947;-71
2022/07/26 00:47:37;;;;;;;;;;;22.60;97.60;;;;;;5142422;27;19938;-72
2022/07/26 00:50:07;;;;;;;;;;;22.60;97.60;;;;;;5145309;27;19959;-72
2022/07/26 00:52:34;;;;;;;;;;;22.60;97.60;;;;;;5135798;27;20161;-71
2022/07/26 00:55:01;;;;;;;;;;;22.60;97.70;;;;;;5141215;27;19955;-71
2022/07/26 00:57:28;;;;;;;;;;;22.60;97.80;;;;;;5143264;27;19920;-71
2022/07/26 00:59:55;;;;;;;;;;;22.60;97.80;;;;;;5133547;27;19959;-71
2022/07/26 01:02:22;;;;;;;;;;;22.60;97.90;;;;;;5135180;27;19919;-71
2022/07/26 01:04:49;;;;;;;;;;;22.60;97.90;;;;;;5138502;27;19955;-71
2022/07/26 01:07:17;;;;;;;;;;;22.60;97.90;;;;;;5153200;22;19983;-90
2022/07/26 01:09:44;;;;;;;;;;;22.50;97.80;;;;;;5099450;28;19921;-89
2022/07/26 01:12:12;;;;;;;;;;;22.50;97.80;;;;;;5104017;28;19920;-90
2022/07/26 01:14:42;;;;;;;;;;;22.50;97.90;;;;;;5104256;28;19913;-90
2022/07/26 01:17:33;;;;;;;;;;;21.30;97.30;;;;;;5104038;28;19984;-92
2022/07/26 01:20:02;;;;;;;;;;;22.50;98.00;;;;;;5101391;28;19927;-88
2022/07/26 01:22:31;;;;;;;;;;;22.50;98.10;;;;;;5096211;28;19920;-90
2022/07/26 01:25:21;;;;;;;;;;;22.40;98.20;;;;;;5114014;28;19908;-90
2022/07/26 01:27:59;;;;;;;;;;;22.40;98.30;;;;;;5100658;28;19920;-88
2022/07/26 01:30:26;;;;;;;;;;;22.30;98.50;;;;;;5103157;28;19924;-93
2022/07/26 01:32:54;;;;;;;;;;;22.20;98.50;;;;;;5095282;28;19955;-91
2022/07/26 01:35:21;;;;;;;;;;;22.20;98.70;;;;;;5106907;28;19920;-90
2022/07/26 01:37:55;;;;;;;;;;;22.20;98.90;;;;;;5099772;28;19924;-90
2022/07/26 01:40:22;;;;;;;;;;;22.20;99.10;;;;;;5108165;28;19928;-91
2022/07/26 01:42:49;;;;;;;;;;;22.20;99.00;;;;;;5103304;28;19908;-92
2022/07/26 01:45:16;;;;;;;;;;;22.20;99.10;;;;;;5119819;28;19908;-91
2022/07/26 01:47:48;;;;;;;;;;;22.20;99.50;;;;;;5117466;28;19912;-91
2022/07/26 01:50:16;;;;;;;;;;;22.10;99.70;;;;;;5115114;27;19919;-90
2022/07/26 01:55:43;;;;;;;;;;;22.00;99.90;;;;;;5124921;22;19919;-70
2022/07/26 01:58:09;;;;;;;;;;;22.00;99.90;;;;;;5135923;27;19986;-70
2022/07/26 02:00:36;;;;;;;;;;;22.00;99.90;;;;;;5126035;27;19987;-70
2022/07/26 02:03:03;;;;;;;;;;;21.90;99.90;;;;;;5129241;27;19948;-70
2022/07/26 02:05:29;;;;;;;;;;;21.90;99.90;;;;;;5116295;28;19962;-70
2022/07/26 02:07:56;;;;;;;;;;;21.90;99.90;;;;;;5130864;27;19987;-70
2022/07/26 02:10:23;;;;;;;;;;;21.80;99.90;;;;;;5149107;22;20260;-69
2022/07/26 02:12:51;;;;;;;;;;;21.80;99.90;;;;;;5145299;27;19920;-67
2022/07/26 02:15:18;;;;;;;;;;;21.70;99.90;;;;;;5145008;27;19919;-68
2022/07/26 02:17:44;;;;;;;;;;;21.70;99.90;;;;;;5138427;27;20133;-68
2022/07/26 02:20:11;;;;;;;;;;;21.70;99.90;;;;;;5135767;27;20238;-67
2022/07/26 02:22:38;;;;;;;;;;;21.70;99.90;;;;;;5126030;27;19942;-67
2022/07/26 02:25:05;;;;;;;;;;;21.70;99.90;;;;;;5133193;27;19928;-67
2022/07/26 02:27:32;;;;;;;;;;;21.70;99.90;;;;;;5115599;28;19951;-67
2022/07/26 02:30:00;;;;;;;;;;;21.70;99.90;;;;;;5127968;27;20151;-67
2022/07/26 02:32:27;;;;;;;;;;;21.60;99.90;;;;;;5126715;27;19927;-67
2022/07/26 02:34:54;;;;;;;;;;;21.70;99.90;;;;;;5116135;27;19987;-67
2022/07/26 02:37:20;;;;;;;;;;;21.70;99.90;;;;;;5132240;27;19986;-68
2022/07/26 02:39:47;;;;;;;;;;;21.70;99.90;;;;;;5127143;27;19924;-67
2022/07/26 02:42:14;;;;;;;;;;;21.60;99.90;;;;;;5118547;27;19963;-67
2022/07/26 02:44:41;;;;;;;;;;;21.60;99.90;;;;;;5107046;28;20216;-67
2022/07/26 02:47:09;;;;;;;;;;;21.50;99.90;;;;;;5107295;28;20218;-67
2022/07/26 02:49:36;;;;;;;;;;;21.50;99.90;;;;;;5115584;28;20199;-67
2022/07/26 02:52:02;;;;;;;;;;;21.40;99.90;;;;;;5124145;28;19963;-67
2022/07/26 02:54:29;;;;;;;;;;;21.40;99.90;;;;;;5124193;28;19955;-67
2022/07/26 02:56:56;;;;;;;;;;;21.40;99.90;;;;;;5129740;27;19982;-67
2022/07/26 02:59:22;;;;;;;;;;;21.40;99.90;;;;;;5129967;27;19927;-67
2022/07/26 03:01:49;;;;;;;;;;;21.40;99.90;;;;;;5129020;27;19923;-67
2022/07/26 03:04:17;;;;;;;;;;;21.50;99.90;;;;;;5126889;27;20270;-68
2022/07/26 03:06:44;;;;;;;;;;;21.40;99.90;;;;;;5115682;28;19959;-67
2022/07/26 03:09:10;;;;;;;;;;;21.40;99.90;;;;;;5115419;28;20049;-67
2022/07/26 03:11:37;;;;;;;;;;;21.40;99.90;;;;;;5127726;27;19979;-67
2022/07/26 03:14:04;;;;;;;;;;;21.40;99.90;;;;;;5128265;27;19920;-67
2022/07/26 03:16:31;;;;;;;;;;;21.40;99.90;;;;;;5112158;28;20366;-68
2022/07/26 03:18:58;;;;;;;;;;;21.30;99.90;;;;;;5132273;27;20253;-67
2022/07/26 03:21:26;;;;;;;;;;;21.30;99.90;;;;;;5129678;28;19919;-67
2022/07/26 03:23:53;;;;;;;;;;;21.20;99.90;;;;;;5116030;28;19927;-68
2022/07/26 03:26:20;;;;;;;;;;;21.20;99.90;;;;;;5116932;28;20092;-68
2022/07/26 03:28:46;;;;;;;;;;;21.20;99.90;;;;;;5123919;28;19986;-68
2022/07/26 03:31:13;;;;;;;;;;;21.20;99.90;;;;;;5113228;28;19927;-67
2022/07/26 03:33:40;;;;;;;;;;;21.20;99.90;;;;;;5118243;28;19957;-68
2022/07/26 03:36:07;;;;;;;;;;;21.20;99.90;;;;;;5119960;28;19947;-68
2022/07/26 03:38:37;;;;;;;;;;;21.10;99.90;;;;;;5123969;28;19965;-68
2022/07/26 03:41:04;;;;;;;;;;;21.10;99.90;;;;;;5127812;28;19986;-67
2022/07/26 03:43:30;;;;;;;;;;;21.10;99.90;;;;;;5127315;28;19979;-67
2022/07/26 03:45:57;;;;;;;;;;;21.10;99.90;;;;;;5115619;28;19979;-68
2022/07/26 03:48:24;;;;;;;;;;;21.10;99.90;;;;;;5117682;28;19951;-68
2022/07/26 03:50:50;;;;;;;;;;;21.10;99.90;;;;;;5121707;28;19958;-67
2022/07/26 03:53:17;;;;;;;;;;;21.10;99.90;;;;;;5127505;28;20001;-68
2022/07/26 03:58:29;;;;;;;;;;;21.00;99.90;;;;;;5125907;28;19927;-67
2022/07/26 04:00:55;;;;;;;;;;;21.00;99.90;;;;;;5108852;28;19983;-68
2022/07/26 04:03:22;;;;;;;;;;;21.00;99.90;;;;;;5106897;28;19920;-67
2022/07/26 04:05:49;;;;;;;;;;;21.00;99.90;;;;;;5107058;28;19920;-67
2022/07/26 04:08:15;;;;;;;;;;;21.00;99.90;;;;;;5106901;28;19920;-67
2022/07/26 04:10:46;;;;;;;;;;;20.90;99.90;;;;;;5106644;28;19951;-67
2022/07/26 04:13:12;;;;;;;;;;;21.00;99.90;;;;;;5106425;28;19991;-67
2022/07/26 04:15:39;;;;;;;;;;;20.90;99.90;;;;;;5118140;28;19994;-67
2022/07/26 04:18:06;;;;;;;;;;;20.90;99.90;;;;;;5106734;28;20278;-67
2022/07/26 04:20:32;;;;;;;;;;;20.90;99.90;;;;;;5106546;28;19955;-67
2022/07/26 04:22:59;;;;;;;;;;;20.90;99.90;;;;;;5106617;28;19920;-67
2022/07/26 04:25:25;;;;;;;;;;;20.90;99.90;;;;;;5106739;28;19920;-67
2022/07/26 04:27:53;;;;;;;;;;;20.90;99.90;;;;;;5106693;28;19947;-67
2022/07/26 04:30:20;;;;;;;;;;;20.80;99.90;;;;;;5106885;28;19989;-67
2022/07/26 04:32:47;;;;;;;;;;;20.80;99.90;;;;;;5124504;28;19955;-67
2022/07/26 04:35:14;;;;;;;;;;;20.80;99.90;;;;;;5126691;28;19947;-68
2022/07/26 04:37:41;;;;;;;;;;;20.80;99.90;;;;;;5127030;28;19920;-68
2022/07/26 04:40:09;;;;;;;;;;;20.80;99.90;;;;;;5126757;28;19920;-67
2022/07/26 04:42:35;;;;;;;;;;;20.80;99.90;;;;;;5126730;28;20003;-67
2022/07/26 04:45:04;;;;;;;;;;;20.80;99.90;;;;;;5117655;28;19982;-68
2022/07/26 04:47:31;;;;;;;;;;;20.70;99.90;;;;;;5119647;28;20253;-67
2022/07/26 04:49:57;;;;;;;;;;;20.70;99.90;;;;;;5119845;28;19955;-67
2022/07/26 04:52:24;;;;;;;;;;;20.70;99.90;;;;;;5126663;28;19994;-68
2022/07/26 04:54:51;;;;;;;;;;;20.70;99.90;;;;;;5127624;27;19954;-68
2022/07/26 04:57:17;;;;;;;;;;;20.70;99.90;;;;;;5126678;27;19958;-67
2022/07/26 04:59:44;;;;;;;;;;;20.70;99.90;;;;;;5124563;27;19919;-67
2022/07/26 05:02:13;;;;;;;;;;;20.70;99.90;;;;;;5114572;28;19958;-67
2022/07/26 05:04:40;;;;;;;;;;;20.60;99.90;;;;;;5105784;28;19924;-68
2022/07/26 05:07:07;;;;;;;;;;;20.60;99.90;;;;;;5114222;28;20269;-68
2022/07/26 05:09:33;;;;;;;;;;;20.60;99.90;;;;;;5109774;28;20124;-68
2022/07/26 05:12:00;;;;;;;;;;;20.60;99.90;;;;;;5106558;28;19995;-68
2022/07/26 05:14:27;;;;;;;;;;;20.60;99.90;;;;;;5125795;28;19920;-68
2022/07/26 05:16:53;;;;;;;;;;;20.60;99.90;;;;;;5125912;27;19927;-68
2022/07/26 05:19:21;;;;;;;;;;;20.60;99.90;;;;;;5117384;28;19965;-68
2022/07/26 05:21:48;;;;;;;;;;;20.60;99.90;;;;;;5123169;27;19966;-68
2022/07/26 05:24:15;;;;;;;;;;;20.60;99.90;;;;;;5114831;28;19927;-67
2022/07/26 05:26:41;;;;;;;;;;;20.60;99.90;;;;;;5116747;27;19947;-67
2022/07/26 05:29:08;;;;;;;;;;;20.60;99.90;;;;;;5113357;28;19920;-68
2022/07/26 05:31:35;;;;;;;;;;;20.50;99.90;;;;;;5115590;28;19959;-67
2022/07/26 05:34:02;;;;;;;;;;;20.50;99.90;;;;;;5113540;28;19954;-68
2022/07/26 05:36:30;;;;;;;;;;;20.50;99.90;;;;;;5111100;28;19927;-68
2022/07/26 05:38:57;;;;;;;;;;;20.50;99.90;;;;;;5116982;27;19955;-67
2022/07/26 05:41:23;;;;;;;;;;;20.50;99.90;;;;;;5113431;28;19919;-67
2022/07/26 05:43:50;;;;;;;;;;;20.50;99.90;;;;;;5119529;27;19941;-67
2022/07/26 05:46:16;;;;;;;;;;;20.40;99.90;;;;;;5128349;27;20326;-67
2022/07/26 05:48:43;;;;;;;;;;;20.50;99.90;;;;;;5125271;27;20226;-68
2022/07/26 05:51:10;;;;;;;;;;;20.50;99.90;;;;;;5125312;28;20222;-67
2022/07/26 05:53:38;;;;;;;;;;;20.50;99.90;;;;;;5125034;28;19982;-65
2022/07/26 05:56:06;;;;;;;;;;;20.50;99.90;;;;;;5125374;28;19978;-67
2022/07/26 05:58:32;;;;;;;;;;;20.60;99.90;;;;;;5125530;28;19924;-69
2022/07/26 06:00:59;;;;;;;;;;;20.60;99.90;;;;;;5124714;28;19959;-68
2022/07/26 06:03:26;;;;;;;;;;;20.60;99.90;;;;;;5124604;28;20122;-68
2022/07/26 06:05:53;;;;;;;;;;;20.60;99.90;;;;;;5124064;28;20118;-68
2022/07/26 06:08:19;;;;;;;;;;;20.70;99.90;;;;;;5114654;28;19982;-68
2022/07/26 06:10:48;;;;;;;;;;;20.80;99.90;;;;;;5123540;28;19954;-68
2022/07/26 06:13:15;;;;;;;;;;;20.80;99.90;;;;;;5116570;28;19979;-68
2022/07/26 06:15:42;;;;;;;;;;;20.80;99.90;;;;;;5104546;28;19920;-68
2022/07/26 06:18:09;;;;;;;;;;;20.90;99.90;;;;;;5104513;28;20254;-68
2022/07/26 06:20:38;;;;;;;;;;;20.90;99.90;;;;;;5125659;27;20170;-67
2022/07/26 06:23:04;;;;;;;;;;;20.80;99.90;;;;;;5123363;27;19927;-70
2022/07/26 06:25:31;;;;;;;;;;;20.80;99.90;;;;;;5117231;28;19920;-70
2022/07/26 06:28:01;;;;;;;;;;;20.70;99.90;;;;;;5122422;27;20000;-69
2022/07/26 06:30:28;;;;;;;;;;;20.70;99.90;;;;;;5127784;27;19920;-68
2022/07/26 06:32:54;;;;;;;;;;;20.90;99.90;;;;;;5113316;27;19927;-68
2022/07/26 06:35:21;;;;;;;;;;;20.90;99.90;;;;;;5130132;27;19982;-68
2022/07/26 06:37:48;;;;;;;;;;;21.00;99.90;;;;;;5120206;27;20203;-68
2022/07/26 06:40:14;;;;;;;;;;;21.10;99.90;;;;;;5126431;27;20107;-68
2022/07/26 06:42:41;;;;;;;;;;;21.10;99.90;;;;;;5126822;27;19991;-69
2022/07/26 06:45:10;;;;;;;;;;;21.10;99.90;;;;;;5119854;27;19983;-69
2022/07/26 06:47:36;;;;;;;;;;;21.10;99.90;;;;;;5122595;27;19955;-69
2022/07/26 06:50:03;;;;;;;;;;;21.20;99.90;;;;;;5122040;27;20167;-68
2022/07/26 06:52:33;;;;;;;;;;;21.30;99.90;;;;;;5113218;28;19955;-68
2022/07/26 06:55:00;;;;;;;;;;;21.30;99.90;;;;;;5145284;27;19980;-68
2022/07/26 06:57:26;;;;;;;;;;;21.40;99.90;;;;;;5143423;27;19919;-68
2022/07/26 06:59:53;;;;;;;;;;;21.50;99.90;;;;;;5126564;27;19923;-68
2022/07/26 07:02:21;;;;;;;;;;;21.60;99.90;;;;;;5121029;27;20110;-68
2022/07/26 07:04:48;;;;;;;;;;;21.60;99.90;;;;;;5116061;27;20162;-68
2022/07/26 07:07:15;;;;;;;;;;;21.70;99.90;;;;;;5120089;27;19928;-68
2022/07/26 07:09:41;;;;;;;;;;;21.70;99.90;;;;;;5124255;27;19961;-68
2022/07/26 07:12:08;;;;;;;;;;;21.80;99.90;;;;;;5115452;28;19919;-69
2022/07/26 07:14:35;;;;;;;;;;;21.90;99.90;;;;;;5127202;28;19979;-68
2022/07/26 07:17:02;;;;;;;;;;;21.90;99.90;;;;;;5118328;27;20261;-68
2022/07/26 07:19:30;;;;;;;;;;;22.00;99.90;;;;;;5117510;27;19942;-68
2022/07/26 07:21:57;;;;;;;;;;;22.10;99.90;;;;;;5122097;27;20271;-69
2022/07/26 07:24:23;;;;;;;;;;;22.20;99.90;;;;;;5114874;28;19928;-69
2022/07/26 07:26:50;;;;;;;;;;;22.30;99.90;;;;;;5121318;28;19982;-69
2022/07/26 07:29:19;;;;;;;;;;;22.30;99.90;;;;;;5124621;28;19959;-69
2022/07/26 07:31:46;;;;;;;;;;;22.40;99.90;;;;;;5118890;28;20220;-68
2022/07/26 07:34:13;;;;;;;;;;;22.40;99.90;;;;;;5123842;28;19926;-69
2022/07/26 07:36:41;;;;;;;;;;;22.40;99.90;;;;;;5122206;28;19970;-69
2022/07/26 07:39:07;;;;;;;;;;;22.40;99.90;;;;;;5112940;28;20127;-69
2022/07/26 07:41:36;;;;;;;;;;;22.50;99.90;;;;;;5125232;28;19965;-69
2022/07/26 07:44:04;;;;;;;;;;;22.50;99.90;;;;;;5118006;28;19975;-68
2022/07/26 07:46:30;;;;;;;;;;;22.50;99.90;;;;;;5114840;28;19984;-68
2022/07/26 07:48:58;;;;;;;;;;;22.60;99.90;;;;;;5124341;28;20161;-69
2022/07/26 07:51:25;;;;;;;;;;;22.60;99.90;;;;;;5114690;28;19926;-69
2022/07/26 07:53:53;;;;;;;;;;;22.60;99.90;;;;;;5122488;28;19965;-69
2022/07/26 07:56:20;;;;;;;;;;;22.60;99.90;;;;;;5125977;28;21098;-68
2022/07/26 07:58:46;;;;;;;;;;;22.60;99.90;;;;;;5116820;28;19986;-68
2022/07/26 08:01:13;;;;;;;;;;;22.60;99.90;;;;;;5127508;28;20287;-69
2022/07/26 08:03:39;;;;;;;;;;;22.60;99.90;;;;;;5117104;28;20115;-69
2022/07/26 08:06:08;;;;;;;;;;;22.60;99.90;;;;;;5118337;28;19919;-68
2022/07/26 08:08:34;;;;;;;;;;;22.60;99.90;;;;;;5121932;28;19981;-69
2022/07/26 08:11:03;;;;;;;;;;;22.60;99.90;;;;;;5143193;22;19927;-72
2022/07/26 08:13:29;;;;;;;;;;;22.70;99.90;;;;;;5142663;28;19954;-72
2022/07/26 08:15:56;;;;;;;;;;;22.80;99.90;;;;;;5142775;28;20179;-72
2022/07/26 08:18:23;;;;;;;;;;;22.90;99.90;;;;;;5143378;28;20171;-72
2022/07/26 08:20:50;;;;;;;;;;;23.00;99.90;;;;;;5143040;28;19919;-72
2022/07/26 08:23:17;;;;;;;;;;;23.10;99.90;;;;;;5143104;28;19919;-72
2022/07/26 08:25:43;;;;;;;;;;;23.20;99.90;;;;;;5145131;27;19986;-72
2022/07/26 08:28:11;;;;;;;;;;;23.40;99.90;;;;;;5147005;27;19920;-72
2022/07/26 08:30:38;;;;;;;;;;;23.40;99.90;;;;;;5146432;27;20170;-72
2022/07/26 08:33:05;;;;;;;;;;;23.40;99.90;;;;;;5146953;27;19947;-72
2022/07/26 08:35:31;;;;;;;;;;;23.40;99.90;;;;;;5137198;27;19927;-72
2022/07/26 08:37:58;;;;;;;;;;;23.30;99.90;;;;;;5140451;27;19926;-72
2022/07/26 08:40:25;;;;;;;;;;;23.30;99.90;;;;;;5137226;27;20010;-72
2022/07/26 08:42:52;;;;;;;;;;;23.30;99.90;;;;;;5145516;27;19982;-69
2022/07/26 08:45:23;;;;;;;;;;;23.40;99.90;;;;;;5144425;27;19919;-72
2022/07/26 08:47:50;;;;;;;;;;;23.40;99.90;;;;;;5142101;27;20183;-71
2022/07/26 08:50:17;;;;;;;;;;;23.50;99.90;;;;;;5144081;27;19971;-71
2022/07/26 08:52:44;;;;;;;;;;;23.40;99.90;;;;;;5144289;27;19927;-72
2022/07/26 08:55:11;;;;;;;;;;;23.30;99.90;;;;;;5146147;27;20285;-71
2022/07/26 08:57:37;;;;;;;;;;;23.30;99.90;;;;;;5145459;27;20282;-71
2022/07/26 09:00:14;;;;;;;;;;;23.40;99.90;;;;;;5145582;27;19951;-71
2022/07/26 09:02:42;;;;;;;;;;;23.50;99.90;;;;;;5143635;27;19954;-71
2022/07/26 09:05:08;;;;;;;;;;;23.60;99.90;;;;;;5146124;27;19954;-71
2022/07/26 09:07:35;;;;;;;;;;;23.60;99.90;;;;;;5144711;27;19950;-72
2022/07/26 09:10:04;;;;;;;;;;;23.50;99.90;;;;;;5142288;27;19926;-71
2022/07/26 09:12:32;;;;;;;;;;;23.50;99.90;;;;;;5138095;27;19927;-72
2022/07/26 09:14:59;;;;;;;;;;;23.40;99.90;;;;;;5140798;27;20233;-71
2022/07/26 09:17:38;;;;;;;;;;;23.30;99.90;;;;;;5143297;27;19927;-72
2022/07/26 09:20:08;;;;;;;;;;;23.30;99.90;;;;;;5144379;27;19926;-72
2022/07/26 09:22:36;;;;;;;;;;;23.30;99.90;;;;;;5145671;27;19975;-72
2022/07/26 09:25:02;;;;;;;;;;;23.30;99.90;;;;;;5146507;27;19926;-73
2022/07/26 09:27:34;;;;;;;;;;;23.30;99.90;;;;;;5146736;27;19934;-72
2022/07/26 09:30:05;;;;;;;;;;;23.30;99.90;;;;;;5131609;27;19957;-71
2022/07/26 09:32:32;;;;;;;;;;;23.40;99.90;;;;;;5125089;28;19950;-72
2022/07/26 09:35:10;;;;;;;;;;;23.60;99.90;;;;;;5125612;28;20227;-72
2022/07/26 09:37:38;;;;;;;;;;;23.70;99.90;;;;;;5125137;28;20219;-71
2022/07/26 09:40:06;;;;;;;;;;;23.90;99.90;;;;;;5130224;27;20223;-72
2022/07/26 09:42:33;;;;;;;;;;;23.90;99.90;;;;;;5145903;27;20203;-72
2022/07/26 09:44:59;;;;;;;;;;;24.10;99.90;;;;;;5135609;27;19927;-72
2022/07/26 09:47:36;;;;;;;;;;;24.30;99.90;;;;;;5145335;27;19933;-72
2022/07/26 09:50:12;;;;;;;;;;;24.40;99.90;;;;;;5140290;27;19947;-72
2022/07/26 09:52:38;;;;;;;;;;;24.40;99.90;;;;;;5141557;27;19927;-71
2022/07/26 09:55:06;;;;;;;;;;;24.20;99.90;;;;;;5142158;27;19919;-72
2022/07/26 09:57:34;;;;;;;;;;;24.10;99.90;;;;;;5145150;27;19923;-72
2022/07/26 10:00:02;;;;;;;;;;;24.10;99.90;;;;;;5143734;27;19920;-72
2022/07/26 10:02:28;;;;;;;;;;;24.20;99.90;;;;;;5144016;27;20173;-72
2022/07/26 10:04:55;;;;;;;;;;;24.20;99.90;;;;;;5144971;27;19920;-72
2022/07/26 10:07:23;;;;;;;;;;;24.00;99.90;;;;;;5140933;27;19978;-71
2022/07/26 10:09:53;;;;;;;;;;;24.00;99.90;;;;;;5143491;27;19994;-73
2022/07/26 10:12:21;;;;;;;;;;;24.10;99.90;;;;;;5141692;27;19987;-73
2022/07/26 10:14:50;;;;;;;;;;;24.30;99.90;;;;;;5139184;27;19919;-73
2022/07/26 10:17:34;;;;;;;;;;;24.40;99.90;;;;;;5138965;27;19919;-72
2022/07/26 10:20:01;;;;;;;;;;;24.60;99.90;;;;;;5128113;27;19982;-71
2022/07/26 10:22:30;;;;;;;;;;;24.80;99.80;;;;;;5144759;27;19931;-72
2022/07/26 10:24:58;;;;;;;;;;;24.90;98.90;;;;;;5136811;27;19995;-73
2022/07/26 10:27:45;;;;;;;;;;;24.80;98.60;;;;;;5141789;27;19920;-72
2022/07/26 10:30:22;;;;;;;;;;;24.90;99.20;;;;;;5125985;27;20172;-72
2022/07/26 10:32:57;;;;;;;;;;;24.90;98.90;;;;;;5139095;27;19926;-72
2022/07/26 10:35:29;;;;;;;;;;;24.70;99.50;;;;;;5142235;27;20404;-73
2022/07/26 10:38:01;;;;;;;;;;;24.50;98.60;;;;;;5144096;27;20088;-72
2022/07/26 10:40:29;;;;;;;;;;;24.30;97.90;;;;;;5144634;27;19925;-73
2022/07/26 10:43:09;;;;;;;;;;;24.30;97.70;;;;;;5130250;27;19969;-72
2022/07/26 10:45:36;;;;;;;;;;;24.40;96.20;;;;;;5137854;27;20226;-73
2022/07/26 10:48:13;;;;;;;;;;;24.60;95.90;;;;;;5140918;27;19958;-72
2022/07/26 10:50:41;;;;;;;;;;;24.90;95.30;;;;;;5137330;27;19931;-73
2022/07/26 10:53:10;;;;;;;;;;;25.20;96.20;;;;;;5136285;27;19926;-71
2022/07/26 10:55:47;;;;;;;;;;;25.50;94.70;;;;;;5144605;27;20094;-71
2022/07/26 10:58:14;;;;;;;;;;;25.50;95.20;;;;;;5147592;27;19950;-71
2022/07/26 11:00:41;;;;;;;;;;;25.50;95.80;;;;;;5150735;27;19983;-71
2022/07/26 11:03:07;;;;;;;;;;;25.60;94.50;;;;;;5129056;27;19947;-71
2022/07/26 11:05:34;;;;;;;;;;;25.70;95.40;;;;;;5124403;28;19983;-71
2022/07/26 11:08:04;;;;;;;;;;;25.80;95.10;;;;;;5129698;27;19919;-71
2022/07/26 11:10:33;;;;;;;;;;;25.90;94.10;;;;;;5143700;27;19926;-71
2022/07/26 11:13:01;;;;;;;;;;;25.80;92.40;;;;;;5144052;27;19979;-71
2022/07/26 11:15:28;;;;;;;;;;;25.80;92.20;;;;;;5144774;27;20118;-70
2022/07/26 11:18:05;;;;;;;;;;;25.90;92.90;;;;;;5144490;27;19978;-71
2022/07/26 11:20:32;;;;;;;;;;;26.00;92.50;;;;;;5144725;27;20182;-71
2022/07/26 11:22:59;;;;;;;;;;;26.10;92.80;;;;;;5144344;27;19919;-72
2022/07/26 11:25:26;;;;;;;;;;;26.30;92.60;;;;;;5144523;27;19951;-71
2022/07/26 11:28:01;;;;;;;;;;;26.30;92.60;;;;;;5144684;27;19950;-71
2022/07/26 11:30:28;;;;;;;;;;;26.60;92.40;;;;;;5124079;28;19920;-71
2022/07/26 11:32:57;;;;;;;;;;;26.70;92.30;;;;;;5134473;28;19920;-72
2022/07/26 11:35:24;;;;;;;;;;;26.70;92.50;;;;;;5144112;28;19979;-71
2022/07/26 11:37:55;;;;;;;;;;;26.80;92.30;;;;;;5138069;28;19919;-71
2022/07/26 11:40:41;;;;;;;;;;;26.80;92.10;;;;;;5141938;28;19927;-71
2022/07/26 11:43:09;;;;;;;;;;;26.70;92.10;;;;;;5141561;28;19960;-71
2022/07/26 11:45:36;;;;;;;;;;;26.40;92.00;;;;;;5143741;28;19920;-71
2022/07/26 11:48:03;;;;;;;;;;;26.20;91.50;;;;;;5143811;28;20215;-70
2022/07/26 11:50:30;;;;;;;;;;;26.10;91.10;;;;;;5141458;28;19933;-70
2022/07/26 11:52:56;;;;;;;;;;;26.00;91.30;;;;;;5140204;27;19962;-71
2022/07/26 11:55:27;;;;;;;;;;;26.10;91.00;;;;;;5143947;28;19923;-70
2022/07/26 11:57:54;;;;;;;;;;;26.30;90.30;;;;;;5135369;28;20121;-71
2022/07/26 12:00:33;;;;;;;;;;;26.10;90.60;;;;;;5148957;27;19942;-71
2022/07/26 12:02:59;;;;;;;;;;;26.10;91.00;;;;;;5130422;27;19973;-72
2022/07/26 12:05:29;;;;;;;;;;;26.30;90.40;;;;;;5141439;27;19955;-72
2022/07/26 12:07:57;;;;;;;;;;;26.20;91.20;;;;;;5148130;27;19920;-73
2022/07/26 12:10:23;;;;;;;;;;;26.20;91.30;;;;;;5137236;27;19920;-73
2022/07/26 12:12:50;;;;;;;;;;;26.20;91.90;;;;;;5147052;27;20040;-76
2022/07/26 12:15:17;;;;;;;;;;;26.30;91.50;;;;;;5148271;27;19955;-73
2022/07/26 12:18:07;;;;;;;;;;;26.50;91.60;;;;;;5140336;27;20243;-72
2022/07/26 12:20:37;;;;;;;;;;;26.50;92.20;;;;;;5144620;27;19927;-73
2022/07/26 12:23:04;;;;;;;;;;;26.70;92.70;;;;;;5130409;27;20066;-73
2022/07/26 12:25:31;;;;;;;;;;;26.90;92.90;;;;;;5126113;28;19986;-74
2022/07/26 12:27:58;;;;;;;;;;;27.00;91.30;;;;;;5133624;27;20206;-71
2022/07/26 12:30:25;;;;;;;;;;;27.10;91.00;;;;;;5140236;27;20114;-73
2022/07/26 12:32:53;;;;;;;;;;;26.80;90.40;;;;;;5138706;27;19923;-72
2022/07/26 12:35:30;;;;;;;;;;;26.80;91.00;;;;;;5126842;28;19926;-72
2022/07/26 12:37:59;;;;;;;;;;;26.80;91.30;;;;;;5127107;28;19958;-73
2022/07/26 12:40:26;;;;;;;;;;;27.10;91.50;;;;;;5147345;27;19991;-72
2022/07/26 12:42:54;;;;;;;;;;;27.40;90.90;;;;;;5147136;27;19951;-72
2022/07/26 12:45:22;;;;;;;;;;;27.60;90.70;;;;;;5147606;27;19998;-72
2022/07/26 12:47:49;;;;;;;;;;;27.70;90.70;;;;;;5148035;27;20014;-73
2022/07/26 12:50:17;;;;;;;;;;;27.90;88.40;;;;;;5127661;27;20383;-74
2022/07/26 12:52:44;;;;;;;;;;;28.10;87.00;;;;;;5144947;27;20226;-72
2022/07/26 12:55:21;;;;;;;;;;;28.00;84.20;;;;;;5144372;27;19926;-72
2022/07/26 12:57:53;;;;;;;;;;;28.00;85.20;;;;;;5146159;27;20096;-71
2022/07/26 13:00:22;;;;;;;;;;;28.10;85.30;;;;;;5143481;27;20264;-72
2022/07/26 13:02:53;;;;;;;;;;;28.30;85.50;;;;;;5145754;27;19986;-71
2022/07/26 13:05:20;;;;;;;;;;;28.40;85.50;;;;;;5146429;27;19920;-71
2022/07/26 13:07:46;;;;;;;;;;;28.50;85.30;;;;;;5142525;27;19946;-72
2022/07/26 13:10:13;;;;;;;;;;;28.60;82.70;;;;;;5125764;28;19951;-73
2022/07/26 13:12:41;;;;;;;;;;;28.70;83.20;;;;;;5125729;28;19920;-72
2022/07/26 13:15:08;;;;;;;;;;;28.40;83.10;;;;;;5125580;28;19982;-75
2022/07/26 13:17:35;;;;;;;;;;;28.60;84.50;;;;;;5154237;27;19926;-75
2022/07/26 13:20:02;;;;;;;;;;;28.80;82.60;;;;;;5154917;27;20244;-76
2022/07/26 13:22:28;;;;;;;;;;;28.40;80.50;;;;;;5167473;27;19971;-73
2022/07/26 13:24:55;;;;;;;;;;;27.90;80.40;;;;;;5167429;27;19956;-73
2022/07/26 13:27:22;;;;;;;;;;;27.80;81.60;;;;;;5167835;27;19954;-73
2022/07/26 13:29:50;;;;;;;;;;;27.70;81.20;;;;;;5150788;27;19926;-73
2022/07/26 13:32:17;;;;;;;;;;;27.60;82.70;;;;;;5142746;27;19951;-73
2022/07/26 13:34:43;;;;;;;;;;;27.40;83.20;;;;;;5143258;27;19920;-73
2022/07/26 13:37:10;;;;;;;;;;;27.20;83.20;;;;;;5135332;27;19927;-73
2022/07/26 13:39:37;;;;;;;;;;;27.00;83.20;;;;;;5138230;27;19988;-73
2022/07/26 13:42:03;;;;;;;;;;;27.00;83.30;;;;;;5145884;27;19920;-73
2022/07/26 13:44:30;;;;;;;;;;;26.80;85.40;;;;;;5145287;27;19947;-73
2022/07/26 13:46:58;;;;;;;;;;;26.60;86.60;;;;;;5137526;27;19987;-73
2022/07/26 13:49:25;;;;;;;;;;;26.50;86.30;;;;;;5145771;27;19952;-73
2022/07/26 13:51:57;;;;;;;;;;;26.30;86.50;;;;;;5129988;27;19920;-72
2022/07/26 13:54:25;;;;;;;;;;;26.30;86.00;;;;;;5125171;28;20223;-73
2022/07/26 13:56:52;;;;;;;;;;;26.60;86.70;;;;;;5125246;28;19962;-73
2022/07/26 13:59:18;;;;;;;;;;;27.10;85.10;;;;;;5125616;28;19920;-72
2022/07/26 14:01:45;;;;;;;;;;;27.50;84.80;;;;;;5136770;27;19994;-72
2022/07/26 14:04:13;;;;;;;;;;;27.90;84.10;;;;;;5144958;27;19974;-73
2022/07/26 14:06:40;;;;;;;;;;;28.10;83.30;;;;;;5145883;27;19919;-73
2022/07/26 14:09:08;;;;;;;;;;;28.40;83.90;;;;;;5145723;27;20269;-73
2022/07/26 14:11:35;;;;;;;;;;;28.80;80.50;;;;;;5166508;22;19919;-69
2022/07/26 14:14:01;;;;;;;;;;;29.10;80.80;;;;;;5145135;27;19919;-69
2022/07/26 14:16:28;;;;;;;;;;;29.20;78.30;;;;;;5145406;27;19919;-69
2022/07/26 14:18:56;;;;;;;;;;;29.10;78.30;;;;;;5145181;27;19954;-69
2022/07/26 14:21:24;;;;;;;;;;;29.00;79.10;;;;;;5131124;27;19919;-69
2022/07/26 14:23:51;;;;;;;;;;;28.80;79.10;;;;;;5123671;28;19978;-68
2022/07/26 14:26:18;;;;;;;;;;;28.60;79.00;;;;;;5124632;28;19951;-69